JES3536 SAWC-SAZN
Flight info
| Callsign | JES3536 |
|---|---|
| Flight time | N/A |
| Altitude | 35000 |
| Route | OGTUR1G OGTUR UT110 PUBLO/N0421F360 UT105 NEU |
| Aircraft | A320/M-SDE3FGHIRWY/LB1 |
Departure
| Time | 2026-05-09 22:00 |
|---|---|
| Airport | El Calafate - Commander Armando Tola International Airport (SAWC) |
Arrival
| Time | N/A |
|---|---|
| Airport | Presidente Perón International Airport (SAZN) |
| Time | Latitude | Longitude | Altitude | Speed | Heading |
|---|---|---|---|---|---|
| 2026-05-09 21:32 | -50.28342 | -72.05385 | 641 ft | 0 kts | 175° |
| 2026-05-09 21:51 | -50.28337 | -72.05385 | 641 ft | 2 kts | 175° |
| 2026-05-09 21:52 | -50.28318 | -72.05388 | 641 ft | 3 kts | 175° |
| 2026-05-09 21:52 | -50.28298 | -72.05391 | 642 ft | 3 kts | 172° |
| 2026-05-09 21:52 | -50.28278 | -72.05397 | 643 ft | 3 kts | 159° |
| 2026-05-09 21:52 | -50.28262 | -72.05410 | 641 ft | 3 kts | 113° |
| 2026-05-09 21:53 | -50.28260 | -72.05427 | 641 ft | 2 kts | 84° |
| 2026-05-09 21:53 | -50.28262 | -72.05454 | 641 ft | 1 kts | 84° |
| 2026-05-09 21:53 | -50.28262 | -72.05458 | 641 ft | 0 kts | 84° |
| 2026-05-09 21:55 | -50.28262 | -72.05457 | 641 ft | 0 kts | 84° |
| 2026-05-09 21:55 | -50.28260 | -72.05440 | 641 ft | 3 kts | 74° |
| 2026-05-09 21:56 | -50.28240 | -72.05411 | 641 ft | 5 kts | 28° |
| 2026-05-09 21:56 | -50.28197 | -72.05404 | 641 ft | 8 kts | 358° |
| 2026-05-09 21:56 | -50.28135 | -72.05410 | 643 ft | 9 kts | 356° |
| 2026-05-09 21:56 | -50.28064 | -72.05421 | 644 ft | 11 kts | 351° |
| 2026-05-09 21:57 | -50.28032 | -72.05530 | 641 ft | 14 kts | 262° |
| 2026-05-09 21:57 | -50.28044 | -72.05703 | 641 ft | 17 kts | 265° |
| 2026-05-09 21:57 | -50.28056 | -72.05898 | 642 ft | 19 kts | 264° |
| 2026-05-09 21:57 | -50.28068 | -72.06122 | 641 ft | 22 kts | 265° |
| 2026-05-09 21:58 | -50.28081 | -72.06371 | 643 ft | 24 kts | 266° |
| 2026-05-09 21:58 | -50.28097 | -72.06642 | 644 ft | 26 kts | 260° |
| 2026-05-09 21:58 | -50.28113 | -72.06853 | 643 ft | 11 kts | 258° |
| 2026-05-09 21:58 | -50.28154 | -72.06967 | 644 ft | 11 kts | 278° |
| 2026-05-09 21:59 | -50.28123 | -72.06961 | 642 ft | 5 kts | 46° |
| 2026-05-09 21:59 | -50.28113 | -72.06899 | 643 ft | 5 kts | 86° |
| 2026-05-09 21:59 | -50.28113 | -72.06893 | 643 ft | 0 kts | 85° |
| 2026-05-09 21:59 | -50.28108 | -72.06806 | 643 ft | 30 kts | 84° |
| 2026-05-09 22:00 | -50.28057 | -72.05963 | 642 ft | 121 kts | 85° |
| 2026-05-09 22:00 | -50.27960 | -72.04343 | 896 ft | 164 kts | 84° |
| 2026-05-09 22:00 | -50.27854 | -72.02519 | 1757 ft | 171 kts | 83° |
| 2026-05-09 22:00 | -50.27742 | -72.00635 | 2671 ft | 180 kts | 84° |
| 2026-05-09 22:01 | -50.27617 | -71.98561 | 3327 ft | 203 kts | 83° |
| 2026-05-09 22:01 | -50.27476 | -71.96241 | 3972 ft | 225 kts | 83° |
| 2026-05-09 22:01 | -50.27249 | -71.93695 | 4453 ft | 248 kts | 70° |
| 2026-05-09 22:01 | -50.26218 | -71.91450 | 4875 ft | 268 kts | 33° |
| 2026-05-09 22:02 | -50.24447 | -71.90524 | 5538 ft | 276 kts | 356° |
| 2026-05-09 22:02 | -50.22624 | -71.91320 | 6297 ft | 275 kts | 321° |
| 2026-05-09 22:02 | -50.21326 | -71.93390 | 7136 ft | 271 kts | 301° |
| 2026-05-09 22:02 | -50.20022 | -71.95568 | 8066 ft | 279 kts | 311° |
| 2026-05-09 22:03 | -50.18945 | -71.97961 | 9008 ft | 265 kts | 284° |
| 2026-05-09 22:03 | -50.18726 | -72.00720 | 9953 ft | 256 kts | 262° |
| 2026-05-09 22:03 | -50.18867 | -72.03626 | 10083 ft | 272 kts | 262° |
| 2026-05-09 22:03 | -50.18951 | -72.06571 | 9616 ft | 274 kts | 263° |
| 2026-05-09 22:04 | -50.18977 | -72.09525 | 9019 ft | 266 kts | 266° |
| 2026-05-09 22:04 | -50.18958 | -72.12341 | 8388 ft | 252 kts | 266° |
| 2026-05-09 22:04 | -50.18919 | -72.15009 | 7783 ft | 241 kts | 267° |
| 2026-05-09 22:04 | -50.19129 | -72.17520 | 7253 ft | 233 kts | 243° |
| 2026-05-09 22:05 | -50.20164 | -72.19334 | 7201 ft | 221 kts | 210° |
| 2026-05-09 22:05 | -50.21595 | -72.19860 | 7374 ft | 202 kts | 186° |
| 2026-05-09 22:05 | -50.22830 | -72.19872 | 7923 ft | 155 kts | 187° |
| 2026-05-09 22:05 | -50.23896 | -72.19865 | 7285 ft | 170 kts | 187° |
| 2026-05-09 22:06 | -50.25209 | -72.19914 | 6018 ft | 202 kts | 186° |
| 2026-05-09 22:06 | -50.26665 | -72.19966 | 4965 ft | 214 kts | 179° |
| 2026-05-09 22:06 | -50.28013 | -72.18904 | 4101 ft | 230 kts | 132° |
| 2026-05-09 22:06 | -50.28556 | -72.16565 | 3039 ft | 233 kts | 97° |
| 2026-05-09 22:07 | -50.28545 | -72.14360 | 2916 ft | 180 kts | 94° |
| 2026-05-09 22:07 | -50.28277 | -72.12421 | 1952 ft | 184 kts | 83° |
| 2026-05-09 22:07 | -50.28238 | -72.10494 | 1312 ft | 172 kts | 90° |
| 2026-05-09 22:07 | -50.28223 | -72.08729 | 947 ft | 155 kts | 84° |
| 2026-05-09 22:08 | -50.28121 | -72.07127 | 688 ft | 139 kts | 84° |
| 2026-05-09 22:08 | -50.28039 | -72.05768 | 643 ft | 104 kts | 84° |
| 2026-05-09 22:08 | -50.28007 | -72.05111 | 643 ft | 25 kts | 83° |
| 2026-05-09 22:08 | -50.27990 | -72.04846 | 644 ft | 25 kts | 84° |
| 2026-05-09 22:09 | -50.27985 | -72.04771 | 644 ft | 0 kts | 84° |